Time;durP1;ratioP1;P1;durP2;ratioP2;P2;SDS_P1;SDS_P2;PMS_P1;PMS_P2;Temp;Humidity;BMP_temperature;BMP_pressure;BME280_temperature;BME280_humidity;BME280_pressure;Samples;Min_cycle;Max_cycle;Signal;HPM_P1;HPM_P2
2024/01/04 00:01:20;;;;;;;6.18;0.95;;;7.00;99.90;;;;;;5052544;28;20048;-69
2024/01/04 00:03:46;;;;;;;3.75;1.30;;;7.00;99.90;;;;;;5052708;28;20036;-69
2024/01/04 00:06:11;;;;;;;2.15;0.80;;;7.00;99.90;;;;;;5034507;28;20412;-69
2024/01/04 00:08:37;;;;;;;4.97;0.93;;;6.90;99.90;;;;;;5052145;28;20092;-69
2024/01/04 00:11:06;;;;;;;4.15;1.77;;;6.90;99.90;;;;;;5052428;28;20056;-69
2024/01/04 00:13:32;;;;;;;4.68;0.90;;;7.00;99.90;;;;;;5052353;28;20037;-69
2024/01/04 00:15:58;;;;;;;3.22;0.55;;;6.90;99.90;;;;;;5052227;28;20052;-69
2024/01/04 00:18:24;;;;;;;2.00;0.60;;;6.90;99.90;;;;;;5050956;28;20045;-69
2024/01/04 00:20:50;;;;;;;4.45;0.77;;;6.80;99.90;;;;;;5052194;28;20423;-69
2024/01/04 00:23:15;;;;;;;3.65;0.65;;;6.80;99.90;;;;;;5052289;28;20041;-69
2024/01/04 00:25:41;;;;;;;2.05;0.40;;;6.90;99.90;;;;;;5034236;28;20104;-69
2024/01/04 00:28:07;;;;;;;3.85;0.82;;;6.80;99.90;;;;;;5051738;28;20041;-69
2024/01/04 00:30:32;;;;;;;2.40;0.60;;;6.90;99.90;;;;;;5052025;28;20412;-69
2024/01/04 00:32:58;;;;;;;2.42;0.85;;;6.70;99.90;;;;;;5051957;28;20040;-69
2024/01/04 00:35:24;;;;;;;2.70;0.80;;;6.80;99.90;;;;;;5051980;28;20108;-69
2024/01/04 00:37:49;;;;;;;3.00;0.40;;;6.70;99.90;;;;;;5051675;28;20033;-70
2024/01/04 00:40:15;;;;;;;3.17;0.35;;;6.80;99.90;;;;;;5051847;28;20071;-69
2024/01/04 00:42:41;;;;;;;1.48;0.50;;;6.80;99.90;;;;;;5033954;28;20037;-69
2024/01/04 00:45:07;;;;;;;6.15;1.30;;;6.70;99.90;;;;;;5051726;28;20112;-69
2024/01/04 00:47:33;;;;;;;1.15;0.43;;;6.80;99.90;;;;;;5051749;28;20508;-69
2024/01/04 00:49:58;;;;;;;1.02;0.28;;;6.70;99.90;;;;;;5033861;28;20076;-69
2024/01/04 00:52:24;;;;;;;3.83;0.50;;;6.80;99.90;;;;;;5033882;28;20067;-69
2024/01/04 00:54:50;;;;;;;2.72;0.50;;;6.70;99.90;;;;;;5051694;28;20047;-70
2024/01/04 00:57:16;;;;;;;1.35;0.30;;;6.70;99.90;;;;;;5051415;28;20048;-69
2024/01/04 00:59:41;;;;;;;3.42;0.43;;;6.80;99.90;;;;;;5051198;28;20039;-69
2024/01/04 01:02:07;;;;;;;2.28;0.90;;;6.70;99.90;;;;;;5051514;28;20032;-69
2024/01/04 01:04:32;;;;;;;1.38;0.60;;;6.70;99.90;;;;;;5051675;28;20507;-69
2024/01/04 01:06:58;;;;;;;1.88;0.90;;;6.60;99.90;;;;;;5051405;28;20037;-69
2024/01/04 01:09:23;;;;;;;3.58;0.50;;;6.60;99.90;;;;;;5051360;28;20037;-69
2024/01/04 01:11:49;;;;;;;2.08;0.47;;;6.60;99.90;;;;;;5051518;28;20041;-69
2024/01/04 01:14:15;;;;;;;1.90;0.60;;;6.70;99.90;;;;;;5051433;28;20065;-69
2024/01/04 01:16:40;;;;;;;3.75;0.63;;;6.60;99.90;;;;;;5033426;28;20045;-69
2024/01/04 01:19:07;;;;;;;1.25;0.80;;;6.60;99.90;;;;;;5051325;28;20386;-69
2024/01/04 01:21:33;;;;;;;1.92;0.57;;;6.50;99.90;;;;;;5051510;28;20253;-69
2024/01/04 01:23:58;;;;;;;4.75;0.60;;;6.60;99.90;;;;;;5051466;28;20497;-69
2024/01/04 01:26:24;;;;;;;7.25;1.60;;;6.60;99.90;;;;;;5051284;28;20041;-69
2024/01/04 01:28:50;;;;;;;2.83;0.60;;;6.50;99.90;;;;;;5051078;28;20092;-69
2024/01/04 01:31:15;;;;;;;1.27;0.30;;;6.50;99.90;;;;;;5054808;28;20174;-69
2024/01/04 01:33:43;;;;;;;6.65;0.60;;;6.50;99.90;;;;;;5055572;28;20064;-69
2024/01/04 01:36:09;;;;;;;5.32;0.95;;;6.50;99.90;;;;;;5055353;28;20195;-69
2024/01/04 01:38:35;;;;;;;5.45;0.40;;;6.50;99.90;;;;;;5055001;28;20116;-69
2024/01/04 01:41:00;;;;;;;3.33;0.60;;;6.40;99.90;;;;;;5055313;28;20037;-69
2024/01/04 01:43:26;;;;;;;1.30;0.70;;;6.50;99.90;;;;;;5055135;28;20164;-69
2024/01/04 01:45:52;;;;;;;1.85;0.50;;;6.50;99.90;;;;;;5055045;28;20116;-69
2024/01/04 01:48:18;;;;;;;4.13;0.80;;;6.50;99.90;;;;;;5054736;28;20120;-69
2024/01/04 01:50:43;;;;;;;1.50;0.45;;;6.40;99.90;;;;;;5055165;28;20528;-69
2024/01/04 01:53:09;;;;;;;3.17;0.77;;;6.30;99.90;;;;;;5055023;28;20040;-69
2024/01/04 01:55:36;;;;;;;1.33;0.85;;;6.30;99.90;;;;;;5054968;28;20073;-68
2024/01/04 01:58:02;;;;;;;1.77;0.47;;;6.30;99.90;;;;;;5054252;28;20516;-68
2024/01/04 02:00:28;;;;;;;2.83;0.65;;;6.30;99.90;;;;;;5054797;28;20041;-68
2024/01/04 02:02:54;;;;;;;3.17;0.70;;;6.10;99.90;;;;;;5054952;28;20051;-68
2024/01/04 02:05:20;;;;;;;2.10;0.50;;;6.10;99.90;;;;;;5054816;28;20048;-68
2024/01/04 02:07:45;;;;;;;5.53;0.63;;;6.20;99.90;;;;;;5054303;28;20041;-68
2024/01/04 02:10:12;;;;;;;3.40;1.00;;;6.10;99.90;;;;;;5054712;28;20041;-68
2024/01/04 02:12:38;;;;;;;4.03;0.65;;;6.00;99.90;;;;;;5054667;28;20049;-68
2024/01/04 02:15:04;;;;;;;1.45;0.50;;;5.90;99.90;;;;;;5054731;28;20037;-68
2024/01/04 02:17:30;;;;;;;1.63;0.45;;;5.90;99.90;;;;;;5054224;28;20500;-68
2024/01/04 02:19:59;;;;;;;3.08;0.98;;;5.90;99.90;;;;;;5054539;28;20048;-69
2024/01/04 02:22:24;;;;;;;1.23;0.40;;;5.80;99.90;;;;;;5054513;28;20044;-68
2024/01/04 02:24:50;;;;;;;2.92;0.88;;;5.80;99.90;;;;;;5054699;28;20492;-68
2024/01/04 02:27:17;;;;;;;4.55;1.27;;;5.80;99.90;;;;;;5037028;28;20036;-69
2024/01/04 02:29:43;;;;;;;2.13;0.47;;;5.70;99.90;;;;;;5036769;28;20059;-69
2024/01/04 02:32:08;;;;;;;3.30;0.43;;;5.80;99.90;;;;;;5054688;28;20415;-69
2024/01/04 02:34:34;;;;;;;0.70;0.32;;;5.70;99.90;;;;;;5055100;28;20037;-69
2024/01/04 02:37:00;;;;;;;2.88;0.60;;;5.80;99.90;;;;;;5055110;28;20041;-69
2024/01/04 02:39:25;;;;;;;2.05;0.40;;;5.70;99.90;;;;;;5036849;28;20033;-69
2024/01/04 02:41:51;;;;;;;3.30;0.50;;;5.80;99.90;;;;;;5053269;28;20091;-69
2024/01/04 02:44:17;;;;;;;2.55;0.85;;;5.80;99.90;;;;;;5054295;28;20040;-69
2024/01/04 02:46:42;;;;;;;3.92;0.63;;;5.70;99.90;;;;;;5054117;28;20043;-68
2024/01/04 02:49:08;;;;;;;2.28;0.50;;;5.60;99.90;;;;;;5053664;28;20095;-68
2024/01/04 02:51:34;;;;;;;1.30;0.50;;;5.60;99.90;;;;;;5053965;28;20048;-68
2024/01/04 02:53:59;;;;;;;2.63;1.00;;;5.60;99.90;;;;;;5054021;28;20055;-70
2024/01/04 02:56:25;;;;;;;3.40;0.60;;;5.50;99.90;;;;;;5053720;28;20638;-69
2024/01/04 02:58:51;;;;;;;1.67;0.57;;;5.40;99.90;;;;;;5077773;22;20511;-79
2024/01/04 03:01:20;;;;;;;3.80;0.50;;;5.50;99.90;;;;;;5040197;28;20400;-79
2024/01/04 03:03:47;;;;;;;2.17;0.60;;;5.50;99.90;;;;;;5039622;28;20049;-79
2024/01/04 03:06:13;;;;;;;1.70;0.60;;;5.50;99.90;;;;;;5023298;28;20045;-79
2024/01/04 03:08:39;;;;;;;3.20;0.75;;;5.40;99.90;;;;;;5039645;28;20052;-79
2024/01/04 03:11:04;;;;;;;4.25;0.65;;;5.60;99.90;;;;;;5038698;28;20037;-80
2024/01/04 03:13:30;;;;;;;1.77;0.65;;;5.50;99.90;;;;;;5022459;28;20051;-80
2024/01/04 03:15:55;;;;;;;3.33;0.90;;;5.40;99.90;;;;;;5039038;28;20076;-79
2024/01/04 03:18:21;;;;;;;2.03;1.00;;;5.50;99.90;;;;;;5039345;28;20048;-79
2024/01/04 03:20:47;;;;;;;1.85;0.80;;;5.40;99.90;;;;;;5039120;28;20412;-79
2024/01/04 03:23:12;;;;;;;1.80;0.73;;;5.50;99.90;;;;;;5038956;28;20090;-79
2024/01/04 03:25:38;;;;;;;2.17;0.50;;;5.50;99.90;;;;;;5039382;28;20043;-79
2024/01/04 03:28:04;;;;;;;5.68;1.70;;;5.40;99.90;;;;;;5038988;28;20564;-79
2024/01/04 03:30:30;;;;;;;2.80;0.80;;;5.50;99.90;;;;;;5039032;28;20068;-79
2024/01/04 03:32:55;;;;;;;2.22;0.70;;;5.50;99.90;;;;;;5023079;28;20489;-80
2024/01/04 03:35:21;;;;;;;4.10;0.60;;;5.40;99.90;;;;;;5058147;28;20091;-79
2024/01/04 03:37:46;;;;;;;2.63;0.30;;;5.50;99.90;;;;;;5039841;28;20041;-79
2024/01/04 03:40:12;;;;;;;5.35;0.50;;;5.50;99.90;;;;;;5039507;28;20135;-79
2024/01/04 03:42:38;;;;;;;4.38;0.65;;;5.30;99.90;;;;;;5040295;28;20566;-79
2024/01/04 03:45:04;;;;;;;2.55;0.50;;;5.40;99.90;;;;;;5039334;28;20523;-79
2024/01/04 03:47:29;;;;;;;1.88;1.05;;;5.40;99.90;;;;;;5040352;28;20037;-79
2024/01/04 03:49:55;;;;;;;1.48;0.68;;;5.30;99.90;;;;;;5042782;28;20033;-79
2024/01/04 03:52:21;;;;;;;4.63;0.50;;;5.40;99.90;;;;;;5043605;28;20052;-79
2024/01/04 03:54:46;;;;;;;4.32;0.50;;;5.30;99.90;;;;;;5047215;28;20055;-79
2024/01/04 03:57:12;;;;;;;2.63;0.40;;;5.40;99.90;;;;;;5047195;28;20033;-80
2024/01/04 03:59:37;;;;;;;2.75;0.75;;;5.40;99.90;;;;;;5030842;28;20069;-79
2024/01/04 04:02:04;;;;;;;1.77;0.68;;;5.50;99.90;;;;;;5043916;28;20075;-79
2024/01/04 04:04:29;;;;;;;4.38;0.65;;;5.40;99.90;;;;;;5045602;28;20047;-80
2024/01/04 04:06:55;;;;;;;6.68;0.70;;;5.40;99.90;;;;;;5047543;28;20072;-80
2024/01/04 04:09:21;;;;;;;3.17;0.60;;;5.30;99.90;;;;;;5047172;28;20092;-79
2024/01/04 04:11:48;;;;;;;2.28;0.50;;;5.30;99.90;;;;;;5044202;28;20130;-80
2024/01/04 04:14:14;;;;;;;2.58;0.60;;;5.30;99.90;;;;;;5044723;28;20045;-79
2024/01/04 04:16:41;;;;;;;4.60;1.77;;;5.30;99.90;;;;;;5040935;28;20044;-79
2024/01/04 04:19:07;;;;;;;1.95;0.47;;;5.20;99.90;;;;;;5042586;28;20033;-79
2024/01/04 04:21:33;;;;;;;1.38;0.43;;;5.40;99.90;;;;;;5042754;28;20416;-79
2024/01/04 04:23:59;;;;;;;1.27;0.40;;;5.20;99.90;;;;;;5041263;28;20396;-79
2024/01/04 04:26:25;;;;;;;3.40;1.23;;;5.40;99.90;;;;;;5042170;28;20106;-79
2024/01/04 04:28:51;;;;;;;1.17;0.47;;;5.30;99.90;;;;;;5026592;28;20045;-79
2024/01/04 04:31:18;;;;;;;1.98;0.80;;;5.30;99.90;;;;;;5025684;28;20101;-79
2024/01/04 04:33:45;;;;;;;0.98;0.40;;;5.30;99.90;;;;;;5041001;28;20499;-79
2024/01/04 04:36:11;;;;;;;2.17;0.50;;;5.30;99.90;;;;;;5040827;28;20055;-79
2024/01/04 04:38:38;;;;;;;0.95;0.30;;;5.20;99.90;;;;;;5040005;28;20060;-79
2024/01/04 04:41:05;;;;;;;3.55;0.60;;;5.10;99.90;;;;;;5041283;28;20449;-79
2024/01/04 04:43:31;;;;;;;5.30;0.80;;;5.20;99.90;;;;;;5043308;28;20041;-79
2024/01/04 04:45:57;;;;;;;2.60;0.57;;;5.10;99.90;;;;;;5044279;28;20068;-79
2024/01/04 04:48:23;;;;;;;4.03;0.40;;;5.00;99.90;;;;;;5024778;28;20045;-80
2024/01/04 04:50:50;;;;;;;1.75;0.70;;;5.20;99.90;;;;;;5045145;28;20481;-80
2024/01/04 04:53:16;;;;;;;3.20;1.00;;;5.00;99.90;;;;;;5026403;28;20072;-79
2024/01/04 04:55:42;;;;;;;0.77;0.25;;;5.00;99.90;;;;;;5043647;28;20045;-79
2024/01/04 04:58:08;;;;;;;2.55;0.65;;;5.10;99.90;;;;;;5042892;28;20100;-80
2024/01/04 05:00:34;;;;;;;3.13;0.50;;;5.10;99.90;;;;;;5043837;28;20102;-80
2024/01/04 05:02:59;;;;;;;3.90;0.55;;;5.10;99.90;;;;;;5044337;28;20057;-80
2024/01/04 05:05:25;;;;;;;3.13;0.55;;;5.10;99.90;;;;;;5044685;28;20044;-80
2024/01/04 05:07:50;;;;;;;2.72;0.40;;;5.10;99.90;;;;;;5026137;28;20037;-80
2024/01/04 05:10:16;;;;;;;1.90;0.57;;;5.10;99.90;;;;;;5042839;28;20029;-80
2024/01/04 05:12:42;;;;;;;3.60;1.27;;;5.10;99.90;;;;;;5043793;28;20098;-81
2024/01/04 05:15:08;;;;;;;5.07;0.40;;;5.30;99.90;;;;;;5024325;28;20041;-80
2024/01/04 05:17:33;;;;;;;7.10;0.70;;;5.20;99.90;;;;;;5042409;28;20094;-80
2024/01/04 05:19:59;;;;;;;3.38;0.50;;;5.20;99.90;;;;;;5040048;28;20041;-81
2024/01/04 05:22:24;;;;;;;2.95;0.55;;;5.10;99.90;;;;;;5024827;28;20032;-81
2024/01/04 05:24:50;;;;;;;2.08;0.70;;;5.20;99.90;;;;;;5041633;28;20037;-81
2024/01/04 05:27:16;;;;;;;1.88;0.45;;;5.20;99.90;;;;;;5058874;28;20036;-81
2024/01/04 05:29:41;;;;;;;3.72;0.60;;;5.10;99.90;;;;;;5039800;28;20339;-81
2024/01/04 05:32:07;;;;;;;0.98;0.50;;;5.20;99.90;;;;;;5024463;28;20037;-81
2024/01/04 05:34:32;;;;;;;3.03;0.70;;;5.20;99.90;;;;;;5041573;28;20040;-81
2024/01/04 05:36:59;;;;;;;1.77;0.38;;;5.10;99.90;;;;;;5041387;28;20037;-81
2024/01/04 05:39:25;;;;;;;2.72;0.52;;;5.10;99.90;;;;;;5039273;28;20041;-81
2024/01/04 05:41:51;;;;;;;2.25;0.40;;;5.20;99.90;;;;;;5040718;28;20067;-81
2024/01/04 05:44:17;;;;;;;4.25;0.60;;;5.00;99.90;;;;;;5039070;28;20470;-80
2024/01/04 05:46:42;;;;;;;4.32;0.73;;;5.10;99.90;;;;;;5038931;28;20119;-81
2024/01/04 05:49:08;;;;;;;4.07;0.60;;;4.90;99.90;;;;;;5038743;28;20150;-81
2024/01/04 05:51:34;;;;;;;3.25;0.68;;;4.90;99.90;;;;;;5022081;28;20037;-80
2024/01/04 05:54:02;;;;;;;2.67;0.70;;;4.90;99.90;;;;;;5021674;28;20037;-81
2024/01/04 05:56:27;;;;;;;1.65;0.50;;;4.90;99.90;;;;;;5038457;28;20140;-81
2024/01/04 05:58:53;;;;;;;3.33;0.60;;;4.90;99.90;;;;;;5037558;28;20044;-81
2024/01/04 06:01:18;;;;;;;1.10;0.43;;;4.90;99.90;;;;;;5039352;28;20033;-81
2024/01/04 06:03:44;;;;;;;1.75;0.50;;;4.90;99.90;;;;;;5038930;28;20041;-80
2024/01/04 06:06:14;;;;;;;2.95;0.55;;;4.90;99.90;;;;;;5038256;28;20091;-81
2024/01/04 06:08:43;;;;;;;4.32;0.68;;;4.80;99.90;;;;;;5021914;28;20052;-80
2024/01/04 06:11:09;;;;;;;1.48;0.80;;;4.90;99.90;;;;;;5039485;28;20136;-81
2024/01/04 06:13:36;;;;;;;2.03;0.70;;;4.90;99.90;;;;;;5020397;28;20132;-81
2024/01/04 06:16:08;;;;;;;2.30;0.57;;;4.80;99.90;;;;;;5038095;28;20052;-81
2024/01/04 06:18:34;;;;;;;2.78;0.52;;;4.80;99.90;;;;;;5024922;28;20040;-81
2024/01/04 06:21:00;;;;;;;0.90;0.47;;;4.80;99.90;;;;;;5040807;28;20510;-81
2024/01/04 06:23:27;;;;;;;4.07;0.65;;;4.80;99.90;;;;;;5044046;28;20072;-81
2024/01/04 06:25:53;;;;;;;1.98;0.63;;;4.80;99.90;;;;;;5044191;28;20041;-81
2024/01/04 06:28:19;;;;;;;6.30;0.70;;;4.80;99.90;;;;;;5042376;28;20039;-81
2024/01/04 06:30:45;;;;;;;2.25;0.60;;;4.80;99.90;;;;;;5042084;28;20110;-81
2024/01/04 06:33:11;;;;;;;1.83;0.55;;;4.60;99.90;;;;;;5043852;28;20036;-81
2024/01/04 06:35:37;;;;;;;5.22;0.95;;;4.70;99.90;;;;;;5024707;28;20076;-81
2024/01/04 06:38:07;;;;;;;1.75;0.60;;;4.70;99.90;;;;;;5040544;28;20060;-81
2024/01/04 06:40:36;;;;;;;3.67;0.45;;;4.70;99.90;;;;;;5042034;28;20045;-81
2024/01/04 06:43:03;;;;;;;1.42;0.90;;;4.50;99.90;;;;;;5024301;28;20065;-81
2024/01/04 06:45:32;;;;;;;1.40;0.68;;;4.70;99.90;;;;;;5040241;28;20072;-81
2024/01/04 06:47:57;;;;;;;4.55;1.60;;;4.60;99.90;;;;;;5023926;28;20088;-80
2024/01/04 06:50:23;;;;;;;2.88;0.82;;;4.60;99.90;;;;;;5023598;28;20120;-80
2024/01/04 06:52:49;;;;;;;2.00;0.95;;;4.50;99.90;;;;;;5040468;28;20074;-81
2024/01/04 06:55:15;;;;;;;2.67;0.90;;;4.60;99.90;;;;;;5042836;28;20041;-80
2024/01/04 06:57:41;;;;;;;2.72;0.55;;;4.50;99.90;;;;;;5040293;28;20060;-80
2024/01/04 07:00:08;;;;;;;3.08;0.65;;;4.50;99.90;;;;;;5040870;28;20087;-81
2024/01/04 07:02:35;;;;;;;1.77;0.50;;;4.50;99.90;;;;;;5042090;28;20084;-79
2024/01/04 07:05:04;;;;;;;1.42;0.85;;;4.60;99.90;;;;;;5041055;28;20041;-79
2024/01/04 07:07:34;;;;;;;3.25;0.68;;;4.50;99.90;;;;;;5040786;28;20090;-79
2024/01/04 07:10:01;;;;;;;3.25;1.00;;;4.50;99.90;;;;;;5041820;28;20049;-79
2024/01/04 07:12:27;;;;;;;3.80;0.77;;;4.50;99.90;;;;;;5025723;28;20118;-80
2024/01/04 07:14:53;;;;;;;4.90;1.50;;;4.50;99.90;;;;;;5042720;28;20055;-79
2024/01/04 07:17:19;;;;;;;2.40;0.80;;;4.50;99.90;;;;;;5043011;28;20130;-80
2024/01/04 07:19:45;;;;;;;6.50;1.70;;;4.50;99.90;;;;;;5043379;28;20045;-79
2024/01/04 07:22:11;;;;;;;3.60;0.88;;;4.50;99.90;;;;;;5042060;28;20095;-79
2024/01/04 07:24:37;;;;;;;3.97;0.95;;;4.40;99.90;;;;;;5041952;28;20076;-80
2024/01/04 07:27:04;;;;;;;3.90;0.90;;;4.40;99.90;;;;;;5059907;28;20092;-80
2024/01/04 07:29:31;;;;;;;5.68;1.15;;;4.40;99.90;;;;;;5042620;28;20079;-80
2024/01/04 07:31:57;;;;;;;1.40;0.75;;;4.40;99.90;;;;;;5043703;28;20515;-80
2024/01/04 07:34:23;;;;;;;5.15;1.67;;;4.40;99.90;;;;;;5042449;28;20079;-79
2024/01/04 07:36:48;;;;;;;3.30;1.17;;;4.40;99.90;;;;;;5024841;28;20103;-80
2024/01/04 07:39:15;;;;;;;1.60;1.00;;;4.40;99.90;;;;;;5025750;28;20124;-80
2024/01/04 07:41:41;;;;;;;5.60;1.13;;;4.40;99.90;;;;;;5038054;28;20052;-78
2024/01/04 07:44:07;;;;;;;3.42;1.15;;;4.40;99.90;;;;;;5034675;28;20033;-78
2024/01/04 07:46:33;;;;;;;2.42;0.90;;;4.40;99.90;;;;;;5037577;28;20037;-78
2024/01/04 07:48:59;;;;;;;1.75;0.63;;;4.60;99.90;;;;;;5072064;28;20043;-77
2024/01/04 07:51:24;;;;;;;3.13;0.80;;;4.50;99.90;;;;;;5072503;28;20040;-78
2024/01/04 07:53:50;;;;;;;2.95;0.80;;;4.60;99.90;;;;;;5054395;28;20044;-78
2024/01/04 07:56:15;;;;;;;3.63;1.15;;;4.50;99.90;;;;;;5054584;28;20403;-79
2024/01/04 07:58:41;;;;;;;1.50;0.80;;;4.40;99.90;;;;;;5037654;28;20518;-77
2024/01/04 08:01:07;;;;;;;3.97;1.10;;;4.40;99.90;;;;;;5054532;28;20040;-78
2024/01/04 08:03:32;;;;;;;3.00;1.38;;;4.40;99.90;;;;;;5072239;28;20044;-78
2024/01/04 08:05:59;;;;;;;4.32;1.05;;;4.40;99.90;;;;;;5054147;28;20037;-77
2024/01/04 08:08:27;;;;;;;2.85;0.90;;;4.40;99.90;;;;;;5053822;28;20066;-77
2024/01/04 08:10:53;;;;;;;5.63;1.00;;;4.50;99.90;;;;;;5037708;28;20071;-78
2024/01/04 08:13:19;;;;;;;1.65;0.88;;;4.40;99.90;;;;;;5050777;28;20094;-78
2024/01/04 08:15:44;;;;;;;5.50;1.08;;;4.30;99.90;;;;;;5042086;28;20036;-79
2024/01/04 08:18:10;;;;;;;3.28;1.00;;;4.30;99.90;;;;;;5022216;28;20615;-78
2024/01/04 08:20:35;;;;;;;2.05;0.75;;;4.40;99.90;;;;;;5034142;28;20037;-79
2024/01/04 08:23:01;;;;;;;5.15;1.17;;;4.50;99.90;;;;;;5017784;28;20095;-78
2024/01/04 08:25:27;;;;;;;3.25;0.80;;;4.40;99.90;;;;;;5017383;28;20048;-79
2024/01/04 08:27:53;;;;;;;4.32;1.40;;;4.40;99.90;;;;;;5033786;28;20045;-78
2024/01/04 08:30:19;;;;;;;3.35;0.82;;;4.40;99.90;;;;;;5034432;28;20549;-78
2024/01/04 08:32:44;;;;;;;3.03;0.85;;;4.50;99.90;;;;;;5033787;28;20041;-77
2024/01/04 08:35:10;;;;;;;2.97;0.90;;;4.40;99.90;;;;;;5033951;28;20052;-78
2024/01/04 08:37:36;;;;;;;2.40;0.90;;;4.40;99.90;;;;;;5033572;28;20041;-78
2024/01/04 08:40:04;;;;;;;2.55;0.90;;;4.40;99.90;;;;;;5016545;28;20073;-77
2024/01/04 08:42:30;;;;;;;1.70;0.88;;;4.50;99.90;;;;;;5033805;28;20043;-77
2024/01/04 08:44:56;;;;;;;2.70;0.90;;;4.40;99.90;;;;;;5034672;28;20119;-77
2024/01/04 08:47:22;;;;;;;2.22;0.80;;;4.50;99.90;;;;;;5033624;28;20036;-77
2024/01/04 08:49:47;;;;;;;3.65;1.00;;;4.40;99.90;;;;;;5033645;28;20041;-77
2024/01/04 08:52:13;;;;;;;2.88;0.73;;;4.50;99.90;;;;;;5033949;28;20072;-77
2024/01/04 08:54:38;;;;;;;1.15;0.50;;;4.50;99.90;;;;;;5033432;28;20551;-77
2024/01/04 08:57:06;;;;;;;3.90;0.70;;;4.50;99.90;;;;;;5016028;28;20037;-77
2024/01/04 08:59:34;;;;;;;2.15;1.05;;;4.50;99.90;;;;;;5063016;23;20052;-77
2024/01/04 09:01:59;;;;;;;2.05;0.70;;;4.50;99.90;;;;;;5052768;28;20049;-77
2024/01/04 09:04:25;;;;;;;1.05;0.50;;;4.40;99.90;;;;;;5071260;28;20035;-76
2024/01/04 09:06:51;;;;;;;3.65;1.23;;;4.50;99.90;;;;;;5053472;28;20048;-73
2024/01/04 09:09:16;;;;;;;3.63;0.70;;;4.40;99.90;;;;;;5045090;28;20400;-75
2024/01/04 09:11:48;;;;;;;2.50;0.80;;;4.50;99.90;;;;;;5032767;28;20098;-75
2024/01/04 09:14:14;;;;;;;5.80;1.15;;;4.60;99.90;;;;;;5033637;28;20045;-74
2024/01/04 09:16:42;;;;;;;0.70;0.40;;;4.60;99.90;;;;;;5033487;28;20573;-75
2024/01/04 09:19:08;;;;;;;2.53;0.60;;;4.70;99.90;;;;;;5016803;28;20073;-75
2024/01/04 09:21:34;;;;;;;1.80;0.70;;;4.60;99.90;;;;;;5033449;28;20077;-75
2024/01/04 09:23:59;;;;;;;2.58;0.65;;;4.60;99.90;;;;;;5033824;28;20041;-75
2024/01/04 09:26:25;;;;;;;2.90;0.70;;;4.60;99.90;;;;;;5017108;28;20553;-75
2024/01/04 09:28:51;;;;;;;1.27;0.60;;;4.60;99.90;;;;;;5033405;28;20037;-75
2024/01/04 09:31:16;;;;;;;3.75;0.70;;;4.70;99.90;;;;;;5016975;28;20071;-75
2024/01/04 09:33:42;;;;;;;1.42;0.70;;;4.70;99.90;;;;;;5016797;28;20108;-75
2024/01/04 09:36:08;;;;;;;3.55;1.40;;;4.60;99.90;;;;;;5033600;28;20076;-75
2024/01/04 09:38:34;;;;;;;1.15;0.43;;;4.70;99.90;;;;;;5032989;28;20041;-75
2024/01/04 09:41:18;;;;;;;1.35;0.68;;;4.60;99.90;;;;;;5033215;28;20045;-75
2024/01/04 09:43:45;;;;;;;3.67;1.00;;;4.60;99.90;;;;;;5033321;28;20049;-75
2024/01/04 09:46:16;;;;;;;2.40;0.60;;;4.50;99.90;;;;;;5017040;28;20399;-75
2024/01/04 09:48:48;;;;;;;0.77;0.50;;;4.50;99.90;;;;;;5033005;28;20100;-75
2024/01/04 09:51:14;;;;;;;1.15;0.63;;;4.60;99.90;;;;;;5035049;28;20047;-75
2024/01/04 09:53:41;;;;;;;2.10;0.80;;;4.60;99.90;;;;;;5037328;28;20128;-74
2024/01/04 09:56:08;;;;;;;3.20;0.70;;;4.60;99.90;;;;;;5036995;28;20045;-74
2024/01/04 09:58:34;;;;;;;4.20;0.90;;;4.60;99.90;;;;;;5036489;28;20084;-75
2024/01/04 10:01:03;;;;;;;1.67;0.88;;;4.60;99.90;;;;;;5020557;28;20646;-76
2024/01/04 10:03:30;;;;;;;3.92;1.15;;;4.80;99.90;;;;;;5037053;28;20094;-75
2024/01/04 10:05:57;;;;;;;1.35;0.65;;;4.80;99.90;;;;;;5037208;28;20037;-76
2024/01/04 10:08:36;;;;;;;3.13;1.42;;;4.70;99.90;;;;;;5036565;28;20411;-75
2024/01/04 10:11:15;;;;;;;2.60;0.82;;;5.10;99.90;;;;;;5035657;28;20037;-76
2024/01/04 10:13:41;;;;;;;3.63;0.85;;;5.30;99.90;;;;;;5036765;28;20041;-75
2024/01/04 10:16:06;;;;;;;3.85;0.98;;;5.40;99.90;;;;;;5036675;28;20037;-76
2024/01/04 10:18:35;;;;;;;2.00;0.80;;;5.30;99.90;;;;;;5036353;28;20175;-76
2024/01/04 10:21:03;;;;;;;2.60;0.73;;;5.50;99.90;;;;;;5036658;28;20120;-76
2024/01/04 10:23:29;;;;;;;3.00;1.00;;;5.40;99.90;;;;;;5036545;28;20090;-76
2024/01/04 10:26:13;;;;;;;2.38;0.77;;;5.40;99.90;;;;;;5036435;28;20497;-76
2024/01/04 10:28:39;;;;;;;1.38;0.70;;;5.50;99.90;;;;;;5019816;28;20095;-77
2024/01/04 10:31:08;;;;;;;3.15;0.80;;;5.60;99.90;;;;;;5036473;28;20079;-77
2024/01/04 10:33:35;;;;;;;2.25;0.60;;;5.70;99.90;;;;;;5036628;28;20036;-77
2024/01/04 10:36:10;;;;;;;1.35;0.60;;;5.60;99.90;;;;;;5036688;28;20400;-77
2024/01/04 10:38:37;;;;;;;1.45;0.60;;;5.60;99.90;;;;;;5035973;28;20037;-77
2024/01/04 10:41:04;;;;;;;2.35;0.85;;;5.70;99.90;;;;;;5035714;28;20059;-76
2024/01/04 10:43:33;;;;;;;3.17;0.60;;;5.70;99.90;;;;;;5035718;28;20036;-77
2024/01/04 10:46:08;;;;;;;1.15;0.50;;;5.50;99.90;;;;;;5035988;28;20040;-77
2024/01/04 10:48:35;;;;;;;2.05;0.90;;;5.50;99.90;;;;;;5036212;28;20045;-77
2024/01/04 10:51:04;;;;;;;1.98;1.10;;;5.30;99.90;;;;;;5036001;28;20041;-76
2024/01/04 10:53:37;;;;;;;1.95;0.65;;;5.30;99.90;;;;;;5035957;28;20045;-77
2024/01/04 10:56:04;;;;;;;2.83;0.68;;;5.30;99.90;;;;;;5019596;28;20076;-76
2024/01/04 10:58:35;;;;;;;2.53;0.75;;;5.30;99.90;;;;;;5035415;28;20119;-76
2024/01/04 11:01:04;;;;;;;3.13;1.00;;;5.40;99.90;;;;;;5019479;28;20033;-76
2024/01/04 11:03:31;;;;;;;2.85;0.50;;;5.50;99.90;;;;;;5018659;28;20068;-76
2024/01/04 11:06:00;;;;;;;2.25;0.65;;;5.50;99.90;;;;;;5036040;28;20037;-76
2024/01/04 11:08:31;;;;;;;1.77;0.82;;;5.50;99.90;;;;;;5034972;28;20037;-76
2024/01/04 11:11:00;;;;;;;2.60;0.70;;;5.50;99.90;;;;;;5035265;28;20067;-76
2024/01/04 11:13:25;;;;;;;2.50;0.75;;;5.60;99.90;;;;;;5019107;28;20068;-76
2024/01/04 11:15:55;;;;;;;3.63;0.60;;;5.60;99.90;;;;;;5019314;28;20488;-76
2024/01/04 11:19:02;;;;;;;3.53;0.60;;;5.40;99.90;;;;;;5018571;28;20040;-76
2024/01/04 11:21:58;;;;;;;4.03;0.93;;;5.50;99.90;;;;;;5035557;28;20120;-76
2024/01/04 11:24:45;;;;;;;1.92;0.50;;;5.50;99.90;;;;;;5005173;28;20057;-76
2024/01/04 11:27:14;;;;;;;2.40;0.70;;;5.70;99.90;;;;;;5053266;28;20090;-76
2024/01/04 11:29:41;;;;;;;1.40;0.65;;;5.70;99.90;;;;;;5018309;28;20072;-76
2024/01/04 11:32:07;;;;;;;3.65;1.13;;;5.80;99.90;;;;;;5018753;28;20091;-76
2024/01/04 11:34:33;;;;;;;4.65;1.45;;;5.80;99.90;;;;;;5035034;28;20045;-76
2024/01/04 11:37:16;;;;;;;2.70;0.70;;;5.80;99.90;;;;;;5034907;28;20040;-77
2024/01/04 11:40:00;;;;;;;6.70;0.90;;;5.80;99.90;;;;;;5035036;28;20041;-76
2024/01/04 11:42:32;;;;;;;;;;;5.90;99.90;;;;;;5035873;28;20033;-76
2024/01/04 11:44:59;;;;;;;2.28;1.17;;;5.90;99.90;;;;;;5034995;28;19921;-76
2024/01/04 11:47:26;;;;;;;1.98;0.55;;;6.00;99.90;;;;;;5018513;28;20037;-76
2024/01/04 11:49:59;;;;;;;0.80;0.47;;;6.10;99.90;;;;;;5034903;28;20032;-76
2024/01/04 11:52:28;;;;;;;;;;;6.00;99.90;;;;;;5018873;28;20463;-76
2024/01/04 11:54:55;;;;;;;1.98;0.80;;;5.90;99.90;;;;;;5034927;28;19943;-76
2024/01/04 11:57:22;;;;;;;3.88;0.57;;;5.90;99.90;;;;;;5017971;28;20037;-76
2024/01/04 11:59:48;;;;;;;2.10;0.77;;;6.00;99.90;;;;;;5034476;28;20037;-76
2024/01/04 12:02:21;;;;;;;1.50;0.55;;;6.00;99.90;;;;;;5035022;28;20044;-76
2024/01/04 12:04:48;;;;;;;2.10;0.75;;;5.80;99.90;;;;;;5034964;28;20495;-76
2024/01/04 12:07:14;;;;;;;1.98;1.08;;;5.90;99.90;;;;;;5034530;28;20158;-75
2024/01/04 12:09:43;;;;;;;2.00;1.00;;;5.80;99.90;;;;;;5034317;28;20044;-76
2024/01/04 12:12:09;;;;;;;2.33;0.70;;;5.80;99.90;;;;;;5034782;28;20401;-76
2024/01/04 12:14:35;;;;;;;2.13;0.70;;;5.70;99.90;;;;;;5033613;28;20036;-76
2024/01/04 12:17:01;;;;;;;2.17;0.80;;;5.80;99.90;;;;;;5017705;28;20599;-76
2024/01/04 12:19:27;;;;;;;2.20;0.70;;;5.80;99.90;;;;;;5034051;28;20116;-76
2024/01/04 12:21:53;;;;;;;2.28;0.57;;;5.90;99.90;;;;;;5034372;28;20098;-76
2024/01/04 12:24:19;;;;;;;2.60;1.08;;;6.10;99.90;;;;;;5017935;28;20052;-76
2024/01/04 12:26:45;;;;;;;1.70;0.93;;;6.00;99.90;;;;;;5034177;28;20041;-76
2024/01/04 12:29:11;;;;;;;1.40;0.90;;;6.20;99.90;;;;;;5034009;28;20095;-76
2024/01/04 12:31:40;;;;;;;1.25;0.60;;;6.10;99.90;;;;;;5034135;28;20041;-76
2024/01/04 12:34:11;;;;;;;0.90;0.50;;;6.20;99.90;;;;;;5034216;28;20045;-76
2024/01/04 12:36:37;;;;;;;0.80;0.50;;;6.10;99.90;;;;;;5034203;28;20033;-76
2024/01/04 12:39:13;;;;;;;1.85;0.77;;;6.10;99.90;;;;;;5033409;28;20045;-75
2024/01/04 12:41:44;;;;;;;1.38;0.40;;;6.00;99.90;;;;;;5008900;28;20103;-76
2024/01/04 12:44:11;;;;;;;3.15;0.93;;;5.90;99.90;;;;;;5020130;28;20048;-76
2024/01/04 12:46:37;;;;;;;5.47;1.52;;;5.90;99.90;;;;;;5018191;28;20037;-75
2024/01/04 12:49:10;;;;;;;2.10;0.70;;;5.90;99.90;;;;;;5033260;28;20047;-76
2024/01/04 12:51:39;;;;;;;2.08;0.80;;;5.90;99.90;;;;;;5034013;28;20090;-76
2024/01/04 12:54:05;;;;;;;2.00;0.77;;;5.80;99.90;;;;;;5034060;28;20044;-76
2024/01/04 12:56:31;;;;;;;2.40;0.75;;;5.90;99.90;;;;;;5033764;28;20045;-75